Time;durP1;ratioP1;P1;durP2;ratioP2;P2;SDS_P1;SDS_P2;PMS_P1;PMS_P2;Temp;Humidity;BMP_temperature;BMP_pressure;BME280_temperature;BME280_humidity;BME280_pressure;Samples;Min_cycle;Max_cycle;Signal;HPM_P1;HPM_P2
2022/05/31 00:00:43;;;;;;;;;;;9.60;99.90;;;;;;5074763;28;19925;-69
2022/05/31 00:03:10;;;;;;;;;;;9.50;99.90;;;;;;5074513;28;20371;-69
2022/05/31 00:05:36;;;;;;;;;;;9.50;99.90;;;;;;5074102;28;19974;-69
2022/05/31 00:08:03;;;;;;;;;;;9.40;99.90;;;;;;5074447;28;19993;-69
2022/05/31 00:10:30;;;;;;;;;;;9.40;99.90;;;;;;5074259;28;20322;-69
2022/05/31 00:12:57;;;;;;;;;;;9.40;99.90;;;;;;5074533;28;20019;-69
2022/05/31 00:15:25;;;;;;;;;;;9.40;99.90;;;;;;5074165;28;20015;-69
2022/05/31 00:17:51;;;;;;;;;;;9.30;99.90;;;;;;5074201;28;20027;-69
2022/05/31 00:20:19;;;;;;;;;;;9.50;99.90;;;;;;5074470;28;19925;-69
2022/05/31 00:22:46;;;;;;;;;;;9.50;99.90;;;;;;5074140;28;19932;-69
2022/05/31 00:25:13;;;;;;;;;;;9.40;99.90;;;;;;5073736;28;19928;-69
2022/05/31 00:27:40;;;;;;;;;;;9.10;99.90;;;;;;5074268;28;20363;-69
2022/05/31 00:30:08;;;;;;;;;;;9.20;99.90;;;;;;5073635;28;19925;-69
2022/05/31 00:32:38;;;;;;;;;;;9.20;99.90;;;;;;5074227;28;20007;-69
2022/05/31 00:35:08;;;;;;;;;;;9.20;99.90;;;;;;5073656;28;19956;-69
2022/05/31 00:37:36;;;;;;;;;;;9.10;99.90;;;;;;5073834;28;19924;-69
2022/05/31 00:40:03;;;;;;;;;;;9.20;99.90;;;;;;5073823;28;20382;-69
2022/05/31 00:42:30;;;;;;;;;;;9.10;99.90;;;;;;5073741;28;20368;-69
2022/05/31 00:44:56;;;;;;;;;;;9.20;99.90;;;;;;5073568;28;19924;-69
2022/05/31 00:47:25;;;;;;;;;;;9.20;99.90;;;;;;5073670;28;19960;-69
2022/05/31 00:49:57;;;;;;;;;;;9.00;99.90;;;;;;5073770;28;19932;-69
2022/05/31 00:52:25;;;;;;;;;;;9.10;99.90;;;;;;5074183;28;20142;-69
2022/05/31 00:54:54;;;;;;;;;;;9.30;99.90;;;;;;5073339;28;20269;-69
2022/05/31 00:57:21;;;;;;;;;;;9.10;99.90;;;;;;5073567;28;19976;-69
2022/05/31 00:59:53;;;;;;;;;;;9.10;99.90;;;;;;5073499;28;20447;-69
2022/05/31 01:02:20;;;;;;;;;;;9.00;99.90;;;;;;5073936;28;19975;-69
2022/05/31 01:04:50;;;;;;;;;;;9.00;99.90;;;;;;5073185;28;20019;-69
2022/05/31 01:07:18;;;;;;;;;;;9.00;99.90;;;;;;5073439;28;20035;-69
2022/05/31 01:09:45;;;;;;;;;;;8.90;99.90;;;;;;5073234;28;20443;-69
2022/05/31 01:12:13;;;;;;;;;;;9.10;99.90;;;;;;5073291;28;20011;-69
2022/05/31 01:14:41;;;;;;;;;;;9.10;99.90;;;;;;5073038;28;19967;-69
2022/05/31 01:17:08;;;;;;;;;;;8.90;99.90;;;;;;5072921;28;19925;-69
2022/05/31 01:22:20;;;;;;;;;;;8.70;99.90;;;;;;5073201;28;19932;-69
2022/05/31 01:24:50;;;;;;;;;;;8.70;99.90;;;;;;5072811;28;19975;-69
2022/05/31 01:27:22;;;;;;;;;;;8.70;99.90;;;;;;5072945;28;20008;-69
2022/05/31 01:29:49;;;;;;;;;;;8.60;99.90;;;;;;5072780;28;19925;-69
2022/05/31 01:32:16;;;;;;;;;;;8.70;99.90;;;;;;5072901;28;19924;-69
2022/05/31 01:34:47;;;;;;;;;;;8.60;99.90;;;;;;5072585;28;20373;-69
2022/05/31 01:37:14;;;;;;;;;;;8.60;99.90;;;;;;5072908;28;20384;-69
2022/05/31 01:39:43;;;;;;;;;;;8.60;99.90;;;;;;5072684;28;20030;-69
2022/05/31 01:42:12;;;;;;;;;;;8.80;99.90;;;;;;5071832;28;20377;-69
2022/05/31 01:44:42;;;;;;;;;;;8.80;99.90;;;;;;5072568;28;20380;-69
2022/05/31 01:47:09;;;;;;;;;;;8.70;99.90;;;;;;5072657;28;20338;-69
2022/05/31 01:49:37;;;;;;;;;;;8.80;99.90;;;;;;5072435;28;19924;-69
2022/05/31 01:52:05;;;;;;;;;;;9.00;99.90;;;;;;5072425;28;19972;-69
2022/05/31 01:54:32;;;;;;;;;;;8.90;99.90;;;;;;5072613;28;20055;-69
2022/05/31 01:57:00;;;;;;;;;;;8.70;99.90;;;;;;5072252;28;19929;-69
2022/05/31 01:59:30;;;;;;;;;;;8.80;99.90;;;;;;5072472;28;19924;-69
2022/05/31 02:01:57;;;;;;;;;;;8.90;99.90;;;;;;5072239;28;20374;-69
2022/05/31 02:04:23;;;;;;;;;;;8.90;99.90;;;;;;5072194;28;20022;-69
2022/05/31 02:07:10;;;;;;;;;;;8.90;99.90;;;;;;5072089;28;19931;-69
2022/05/31 02:09:37;;;;;;;;;;;8.70;99.90;;;;;;5072371;28;19924;-69
2022/05/31 02:12:06;;;;;;;;;;;8.70;99.90;;;;;;5072341;28;20019;-69
2022/05/31 02:14:32;;;;;;;;;;;8.80;99.90;;;;;;5072134;28;20392;-69
2022/05/31 02:16:59;;;;;;;;;;;8.70;99.90;;;;;;5071830;28;19960;-69
2022/05/31 02:19:27;;;;;;;;;;;8.60;99.90;;;;;;5072112;28;20015;-69
2022/05/31 02:21:54;;;;;;;;;;;8.70;99.90;;;;;;5072396;28;19928;-69
2022/05/31 02:24:21;;;;;;;;;;;8.60;99.90;;;;;;5072195;28;19924;-70
2022/05/31 02:26:49;;;;;;;;;;;8.50;99.90;;;;;;5071757;28;20015;-69
2022/05/31 02:29:18;;;;;;;;;;;8.40;99.90;;;;;;5071822;28;20011;-69
2022/05/31 02:31:45;;;;;;;;;;;8.40;99.90;;;;;;5071844;28;20486;-69
2022/05/31 02:34:12;;;;;;;;;;;8.40;99.90;;;;;;5071811;28;19924;-69
2022/05/31 02:36:39;;;;;;;;;;;8.40;99.90;;;;;;5071573;28;20349;-69
2022/05/31 02:39:06;;;;;;;;;;;8.40;99.90;;;;;;5071732;28;20026;-69
2022/05/31 02:41:33;;;;;;;;;;;8.40;99.90;;;;;;5071773;28;19928;-69
2022/05/31 02:44:00;;;;;;;;;;;8.40;99.90;;;;;;5071793;28;20205;-69
2022/05/31 02:46:28;;;;;;;;;;;8.40;99.90;;;;;;5071493;28;20012;-69
2022/05/31 02:48:55;;;;;;;;;;;8.40;99.90;;;;;;5071668;28;19931;-69
2022/05/31 02:51:21;;;;;;;;;;;8.30;99.90;;;;;;5072116;28;20015;-69
2022/05/31 02:53:48;;;;;;;;;;;8.20;99.90;;;;;;5074209;28;20384;-69
2022/05/31 02:56:15;;;;;;;;;;;8.30;99.90;;;;;;5075608;28;19975;-69
2022/05/31 02:58:41;;;;;;;;;;;8.30;99.90;;;;;;5075621;28;19924;-69
2022/05/31 03:01:22;;;;;;;;;;;8.20;99.90;;;;;;5075545;28;19925;-69
2022/05/31 03:03:50;;;;;;;;;;;8.10;99.90;;;;;;5075527;28;19924;-69
2022/05/31 03:06:17;;;;;;;;;;;8.20;99.90;;;;;;5075374;28;20008;-69
2022/05/31 03:08:43;;;;;;;;;;;8.10;99.90;;;;;;5075458;28;19931;-69
2022/05/31 03:11:14;;;;;;;;;;;8.00;99.90;;;;;;5075682;28;19971;-69
2022/05/31 03:13:41;;;;;;;;;;;8.20;99.90;;;;;;5075823;28;19931;-69
2022/05/31 03:16:08;;;;;;;;;;;8.20;99.90;;;;;;5075310;28;20018;-69
2022/05/31 03:18:37;;;;;;;;;;;8.20;99.90;;;;;;5075373;28;19935;-69
2022/05/31 03:21:08;;;;;;;;;;;8.20;99.90;;;;;;5075320;28;19924;-69
2022/05/31 03:23:37;;;;;;;;;;;8.30;99.90;;;;;;5075288;28;20020;-69
2022/05/31 03:26:06;;;;;;;;;;;8.40;99.90;;;;;;5075206;28;20015;-69
2022/05/31 03:28:34;;;;;;;;;;;8.40;99.90;;;;;;5074938;28;20478;-69
2022/05/31 03:31:01;;;;;;;;;;;8.20;99.90;;;;;;5075174;28;20359;-69
2022/05/31 03:33:27;;;;;;;;;;;8.20;99.90;;;;;;5075129;28;19924;-69
2022/05/31 03:35:54;;;;;;;;;;;8.30;99.90;;;;;;5074675;28;19926;-69
2022/05/31 03:38:22;;;;;;;;;;;8.30;99.90;;;;;;5075031;28;19924;-69
2022/05/31 03:40:58;;;;;;;;;;;8.40;99.90;;;;;;5074985;28;20392;-69
2022/05/31 03:43:26;;;;;;;;;;;8.30;99.90;;;;;;5075050;28;19931;-69
2022/05/31 03:45:53;;;;;;;;;;;8.30;99.90;;;;;;5074519;28;20470;-69
2022/05/31 03:48:19;;;;;;;;;;;8.40;99.90;;;;;;5074598;28;19932;-69
2022/05/31 03:50:46;;;;;;;;;;;8.40;99.90;;;;;;5075079;28;19967;-69
2022/05/31 03:53:14;;;;;;;;;;;8.50;99.90;;;;;;5074679;28;19928;-69
2022/05/31 03:55:43;;;;;;;;;;;8.60;99.90;;;;;;5074346;28;19925;-69
2022/05/31 03:58:10;;;;;;;;;;;8.60;99.90;;;;;;5074797;28;19970;-69
2022/05/31 04:00:37;;;;;;;;;;;8.60;99.90;;;;;;5074776;28;20291;-69
2022/05/31 04:03:04;;;;;;;;;;;8.70;99.90;;;;;;5074332;28;20015;-69
2022/05/31 04:05:31;;;;;;;;;;;8.50;99.90;;;;;;5073513;28;19930;-69
2022/05/31 04:08:04;;;;;;;;;;;8.50;99.90;;;;;;5074469;28;20036;-69
2022/05/31 04:10:31;;;;;;;;;;;8.40;99.90;;;;;;5074553;28;19925;-69
2022/05/31 04:13:00;;;;;;;;;;;8.50;99.90;;;;;;5074303;28;19967;-69
2022/05/31 04:15:26;;;;;;;;;;;8.40;99.90;;;;;;5073939;28;20034;-69
2022/05/31 04:17:53;;;;;;;;;;;8.40;99.90;;;;;;5074232;28;19972;-69
2022/05/31 04:20:20;;;;;;;;;;;8.30;99.90;;;;;;5073969;28;20031;-69
2022/05/31 04:22:47;;;;;;;;;;;8.20;99.90;;;;;;5073986;28;20043;-69
2022/05/31 04:25:13;;;;;;;;;;;8.30;99.90;;;;;;5073942;28;19991;-69
2022/05/31 04:27:40;;;;;;;;;;;8.30;99.90;;;;;;5074063;28;20007;-69
2022/05/31 04:30:09;;;;;;;;;;;8.30;99.90;;;;;;5073860;28;19924;-69
2022/05/31 04:32:36;;;;;;;;;;;8.20;99.90;;;;;;5074166;28;19960;-69
2022/05/31 04:35:03;;;;;;;;;;;8.10;99.90;;;;;;5073369;28;19967;-69
2022/05/31 04:37:30;;;;;;;;;;;8.20;99.90;;;;;;5074291;28;19924;-69
2022/05/31 04:39:57;;;;;;;;;;;8.30;99.90;;;;;;5074108;28;19925;-69
2022/05/31 04:42:24;;;;;;;;;;;8.10;99.90;;;;;;5073910;28;20023;-69
2022/05/31 04:44:52;;;;;;;;;;;8.10;99.90;;;;;;5073457;28;20015;-69
2022/05/31 04:47:20;;;;;;;;;;;8.10;99.90;;;;;;5073860;28;19931;-69
2022/05/31 04:49:46;;;;;;;;;;;8.30;99.90;;;;;;5073664;28;20027;-69
2022/05/31 04:52:13;;;;;;;;;;;8.40;99.90;;;;;;5073586;28;19967;-69
2022/05/31 04:54:40;;;;;;;;;;;8.40;99.90;;;;;;5073327;28;19924;-68
2022/05/31 04:57:07;;;;;;;;;;;8.40;99.90;;;;;;5073247;28;20431;-69
2022/05/31 04:59:34;;;;;;;;;;;8.50;99.90;;;;;;5073440;28;20023;-69
2022/05/31 05:02:00;;;;;;;;;;;8.60;99.90;;;;;;5073407;28;20452;-69
2022/05/31 05:04:28;;;;;;;;;;;8.60;99.90;;;;;;5073498;28;20388;-69
2022/05/31 05:06:55;;;;;;;;;;;8.60;99.90;;;;;;5073033;28;20008;-69
2022/05/31 05:09:22;;;;;;;;;;;8.70;99.90;;;;;;5073306;28;20007;-69
2022/05/31 05:11:49;;;;;;;;;;;8.80;99.90;;;;;;5073387;28;19924;-69
2022/05/31 05:14:15;;;;;;;;;;;8.80;99.90;;;;;;5073114;28;20350;-69
2022/05/31 05:16:42;;;;;;;;;;;9.00;99.90;;;;;;5071891;28;19929;-69
2022/05/31 05:19:09;;;;;;;;;;;9.10;99.90;;;;;;5073246;28;19947;-69
2022/05/31 05:21:37;;;;;;;;;;;9.30;99.90;;;;;;5073185;28;20265;-69
2022/05/31 05:24:04;;;;;;;;;;;9.30;99.90;;;;;;5072960;28;20292;-69
2022/05/31 05:26:30;;;;;;;;;;;9.40;99.90;;;;;;5072616;28;20019;-69
2022/05/31 05:31:42;;;;;;;;;;;9.50;99.90;;;;;;5073099;28;19927;-69
2022/05/31 05:34:09;;;;;;;;;;;9.60;99.90;;;;;;5072712;28;20392;-69
2022/05/31 05:36:37;;;;;;;;;;;9.70;99.90;;;;;;5072484;28;19930;-69
2022/05/31 05:39:10;;;;;;;;;;;9.50;99.90;;;;;;5072609;28;19963;-69
2022/05/31 05:41:37;;;;;;;;;;;9.60;99.90;;;;;;5072968;28;19928;-69
2022/05/31 05:44:04;;;;;;;;;;;9.50;99.90;;;;;;5072758;28;20443;-69
2022/05/31 05:46:31;;;;;;;;;;;9.60;99.90;;;;;;5072834;28;19986;-69
2022/05/31 05:48:58;;;;;;;;;;;9.80;99.90;;;;;;5072888;28;19924;-69
2022/05/31 05:51:25;;;;;;;;;;;9.80;99.90;;;;;;5072498;28;19928;-69
2022/05/31 05:53:53;;;;;;;;;;;10.00;99.90;;;;;;5072503;28;20019;-69
2022/05/31 05:56:21;;;;;;;;;;;10.10;99.90;;;;;;5072186;28;19967;-69
2022/05/31 05:58:47;;;;;;;;;;;10.00;99.90;;;;;;5072259;28;20019;-69
2022/05/31 06:01:17;;;;;;;;;;;10.10;99.90;;;;;;5072404;28;19934;-69
2022/05/31 06:03:45;;;;;;;;;;;10.30;99.90;;;;;;5072141;28;19924;-69
2022/05/31 06:06:13;;;;;;;;;;;10.40;99.90;;;;;;5071922;28;20019;-69
2022/05/31 06:08:43;;;;;;;;;;;10.40;99.90;;;;;;5072326;28;20438;-69
2022/05/31 06:11:14;;;;;;;;;;;10.60;99.90;;;;;;5072474;28;20011;-69
2022/05/31 06:13:42;;;;;;;;;;;10.60;99.90;;;;;;5072274;28;19952;-69
2022/05/31 06:16:11;;;;;;;;;;;10.80;99.90;;;;;;5071960;28;20023;-69
2022/05/31 06:18:39;;;;;;;;;;;10.90;99.90;;;;;;5071878;28;19932;-69
2022/05/31 06:21:06;;;;;;;;;;;11.10;99.90;;;;;;5072044;28;19978;-69
2022/05/31 06:23:34;;;;;;;;;;;11.10;99.90;;;;;;5071904;28;19925;-69
2022/05/31 06:26:01;;;;;;;;;;;11.20;99.90;;;;;;5071762;28;19924;-69
2022/05/31 06:28:29;;;;;;;;;;;11.40;99.90;;;;;;5071332;28;19924;-69
2022/05/31 06:30:56;;;;;;;;;;;11.50;99.90;;;;;;5071780;28;19925;-69
2022/05/31 06:33:23;;;;;;;;;;;11.60;99.90;;;;;;5071891;28;20023;-69
2022/05/31 06:35:49;;;;;;;;;;;11.80;99.90;;;;;;5071545;28;19963;-69
2022/05/31 06:38:18;;;;;;;;;;;11.90;99.90;;;;;;5070154;28;22298;-69
2022/05/31 06:40:45;;;;;;;;;;;12.00;99.90;;;;;;5071783;28;20392;-69
2022/05/31 06:43:12;;;;;;;;;;;12.20;99.90;;;;;;5072455;28;19967;-69
2022/05/31 06:45:40;;;;;;;;;;;12.20;99.90;;;;;;5071431;28;20019;-69
2022/05/31 06:48:07;;;;;;;;;;;12.40;99.90;;;;;;5071749;28;19925;-69
2022/05/31 06:50:35;;;;;;;;;;;12.60;99.90;;;;;;5071672;28;19928;-69
2022/05/31 06:58:30;;;;;;;;;;;12.70;99.90;;;;;;5071638;28;19926;-69
2022/05/31 07:01:02;;;;;;;;;;;12.80;99.90;;;;;;5071624;28;19960;-69
2022/05/31 07:03:29;;;;;;;;;;;13.10;99.90;;;;;;5071450;28;19924;-69
2022/05/31 07:05:56;;;;;;;;;;;13.30;99.90;;;;;;5071305;28;20019;-69
2022/05/31 07:08:23;;;;;;;;;;;13.40;99.90;;;;;;5071270;28;19931;-69
2022/05/31 07:10:50;;;;;;;;;;;13.50;99.90;;;;;;5071739;28;20029;-69
2022/05/31 07:13:17;;;;;;;;;;;13.50;99.90;;;;;;5071498;28;19931;-69
2022/05/31 07:15:43;;;;;;;;;;;13.60;99.90;;;;;;5071576;28;20292;-69
2022/05/31 07:18:11;;;;;;;;;;;13.50;99.90;;;;;;5071568;28;19931;-69
2022/05/31 07:20:38;;;;;;;;;;;13.70;99.90;;;;;;5071747;28;19967;-69
2022/05/31 07:23:05;;;;;;;;;;;13.80;99.90;;;;;;5071435;28;20027;-69
2022/05/31 07:25:32;;;;;;;;;;;13.80;99.90;;;;;;5071372;28;19930;-69
2022/05/31 07:28:00;;;;;;;;;;;14.10;99.90;;;;;;5071615;28;19931;-69
2022/05/31 07:30:26;;;;;;;;;;;14.50;99.90;;;;;;5071793;28;19924;-69
2022/05/31 07:32:53;;;;;;;;;;;14.70;99.90;;;;;;5071547;28;19925;-69
2022/05/31 07:35:21;;;;;;;;;;;15.00;99.90;;;;;;5071171;28;19924;-69
2022/05/31 07:37:48;;;;;;;;;;;14.60;99.90;;;;;;5071406;28;20024;-69
2022/05/31 07:40:14;;;;;;;;;;;14.70;99.90;;;;;;5072556;28;20035;-69
2022/05/31 07:42:41;;;;;;;;;;;14.80;99.90;;;;;;5075346;28;20011;-69
2022/05/31 07:45:08;;;;;;;;;;;15.00;99.90;;;;;;5074857;28;19971;-69
2022/05/31 07:47:35;;;;;;;;;;;15.10;99.80;;;;;;5074901;28;20023;-69
2022/05/31 07:50:02;;;;;;;;;;;15.30;99.80;;;;;;5074557;28;20371;-69
2022/05/31 07:52:30;;;;;;;;;;;15.60;99.50;;;;;;5074762;28;20026;-69
2022/05/31 07:54:57;;;;;;;;;;;16.00;99.20;;;;;;5074255;28;19925;-69
2022/05/31 08:00:05;;;;;;;;;;;16.40;98.10;;;;;;5040745;28;19921;-69
2022/05/31 08:02:31;;;;;;;;;;;16.80;97.70;;;;;;5074779;28;19972;-69
2022/05/31 08:04:58;;;;;;;;;;;16.60;97.70;;;;;;5074120;28;19924;-69
2022/05/31 08:07:25;;;;;;;;;;;16.10;97.60;;;;;;5074807;28;19931;-69
2022/05/31 08:09:53;;;;;;;;;;;16.40;97.90;;;;;;5074521;28;20018;-69
2022/05/31 08:12:19;;;;;;;;;;;16.60;96.90;;;;;;5074478;28;20018;-69
2022/05/31 08:14:46;;;;;;;;;;;17.40;95.90;;;;;;5074197;28;20019;-69
2022/05/31 08:17:13;;;;;;;;;;;17.90;94.10;;;;;;5074248;28;20410;-69
2022/05/31 08:19:39;;;;;;;;;;;17.50;94.60;;;;;;5074336;28;19967;-69
2022/05/31 08:22:06;;;;;;;;;;;17.60;94.10;;;;;;5074181;28;19924;-69
2022/05/31 08:24:33;;;;;;;;;;;17.90;94.00;;;;;;5074022;28;19963;-69
2022/05/31 08:27:01;;;;;;;;;;;18.00;93.70;;;;;;5073904;28;20418;-69
2022/05/31 08:29:30;;;;;;;;;;;18.20;93.10;;;;;;5073994;28;19960;-69
2022/05/31 08:31:58;;;;;;;;;;;19.30;92.80;;;;;;5074142;28;20334;-69
2022/05/31 08:34:25;;;;;;;;;;;19.80;91.90;;;;;;5074212;28;19931;-71
2022/05/31 08:36:53;;;;;;;;;;;20.80;90.60;;;;;;5073816;28;19925;-71
2022/05/31 08:39:20;;;;;;;;;;;20.70;89.40;;;;;;5073787;28;19925;-71
2022/05/31 08:41:47;;;;;;;;;;;21.20;88.50;;;;;;5073915;28;20027;-71
2022/05/31 08:44:24;;;;;;;;;;;21.80;85.80;;;;;;5073861;28;19925;-71
2022/05/31 08:46:57;;;;;;;;;;;21.20;85.10;;;;;;5073815;28;20022;-71
2022/05/31 08:52:20;;;;;;;;;;;21.90;82.60;;;;;;5073273;28;20339;-71
2022/05/31 08:57:35;;;;;;;;;;;21.70;80.10;;;;;;5073767;28;19927;-71
2022/05/31 09:00:05;;;;;;;;;;;21.60;81.40;;;;;;5073904;28;19932;-71
2022/05/31 09:02:33;;;;;;;;;;;22.70;82.20;;;;;;5073525;28;19980;-72
2022/05/31 09:05:04;;;;;;;;;;;23.60;79.90;;;;;;5072866;28;19931;-72
2022/05/31 09:07:36;;;;;;;;;;;22.90;81.20;;;;;;5073835;28;19925;-73
2022/05/31 09:10:04;;;;;;;;;;;23.70;81.40;;;;;;5073164;28;20070;-72
2022/05/31 09:12:36;;;;;;;;;;;23.40;77.20;;;;;;5073320;28;19968;-72
2022/05/31 09:15:07;;;;;;;;;;;24.70;76.50;;;;;;5073087;28;20011;-72
2022/05/31 09:17:41;;;;;;;;;;;24.70;75.40;;;;;;5073864;28;19925;-73
2022/05/31 09:20:10;;;;;;;;;;;24.70;73.60;;;;;;5073061;28;20018;-72
2022/05/31 09:22:43;;;;;;;;;;;24.40;74.00;;;;;;5072972;28;19924;-72
2022/05/31 09:25:10;;;;;;;;;;;23.40;73.90;;;;;;5072716;28;19935;-71
2022/05/31 09:27:41;;;;;;;;;;;22.90;74.30;;;;;;5072917;28;20007;-72
2022/05/31 09:30:11;;;;;;;;;;;23.90;74.20;;;;;;5073074;28;19924;-72
2022/05/31 09:32:51;;;;;;;;;;;24.40;73.20;;;;;;5073001;28;20381;-72
2022/05/31 09:35:22;;;;;;;;;;;23.90;75.70;;;;;;5072688;28;20000;-72
2022/05/31 09:37:55;;;;;;;;;;;23.60;73.80;;;;;;5073081;28;19935;-71
2022/05/31 09:40:29;;;;;;;;;;;23.40;75.40;;;;;;5072770;28;20019;-74
2022/05/31 09:42:59;;;;;;;;;;;22.90;74.90;;;;;;5073061;28;20019;-71
2022/05/31 09:45:30;;;;;;;;;;;23.20;75.60;;;;;;5072905;28;19928;-72
2022/05/31 09:47:59;;;;;;;;;;;22.90;72.40;;;;;;5073222;28;20036;-71
2022/05/31 09:50:27;;;;;;;;;;;23.20;73.30;;;;;;5072416;28;20028;-71
2022/05/31 09:52:57;;;;;;;;;;;24.10;72.40;;;;;;5072531;28;20289;-71
2022/05/31 09:58:19;;;;;;;;;;;24.40;70.20;;;;;;5072464;28;20338;-72
2022/05/31 10:01:00;;;;;;;;;;;22.90;72.40;;;;;;5072568;28;20019;-72
2022/05/31 10:03:33;;;;;;;;;;;24.30;70.50;;;;;;5071687;28;20098;-72
2022/05/31 10:06:05;;;;;;;;;;;25.20;70.30;;;;;;5072169;28;19930;-72
2022/05/31 10:08:33;;;;;;;;;;;24.50;70.60;;;;;;5072499;28;19970;-74
2022/05/31 10:11:03;;;;;;;;;;;23.40;70.50;;;;;;5072143;28;20027;-72
2022/05/31 10:13:35;;;;;;;;;;;23.70;68.40;;;;;;5072528;28;20023;-74
2022/05/31 10:16:10;;;;;;;;;;;24.20;67.70;;;;;;5071691;28;19925;-71
2022/05/31 10:18:45;;;;;;;;;;;23.60;67.50;;;;;;5072330;28;19978;-72
2022/05/31 10:21:12;;;;;;;;;;;24.80;67.00;;;;;;5072215;28;20019;-70
2022/05/31 10:23:41;;;;;;;;;;;24.70;66.20;;;;;;5072035;28;19924;-70
2022/05/31 10:26:07;;;;;;;;;;;24.60;66.30;;;;;;5071563;28;20426;-71
2022/05/31 10:28:36;;;;;;;;;;;24.90;67.10;;;;;;5071805;28;20015;-71
2022/05/31 10:31:05;;;;;;;;;;;26.10;65.50;;;;;;5072199;28;19947;-71
2022/05/31 10:33:34;;;;;;;;;;;26.10;63.70;;;;;;5071865;28;20377;-71
2022/05/31 10:36:06;;;;;;;;;;;25.70;64.40;;;;;;5071662;28;19932;-71
2022/05/31 10:38:33;;;;;;;;;;;26.20;63.40;;;;;;5071715;28;20011;-70
2022/05/31 10:41:01;;;;;;;;;;;26.10;63.20;;;;;;5071732;28;19924;-71
2022/05/31 10:43:35;;;;;;;;;;;27.20;62.70;;;;;;5071857;28;19928;-71
2022/05/31 10:46:07;;;;;;;;;;;27.30;60.90;;;;;;5071633;28;19931;-70
2022/05/31 10:48:38;;;;;;;;;;;27.50;60.90;;;;;;5071793;28;20435;-71
2022/05/31 10:51:09;;;;;;;;;;;27.00;60.20;;;;;;5071669;28;20003;-70
2022/05/31 10:53:40;;;;;;;;;;;27.30;60.80;;;;;;5071912;28;20412;-70
2022/05/31 10:56:10;;;;;;;;;;;24.90;62.70;;;;;;5071841;28;20128;-70
2022/05/31 10:58:46;;;;;;;;;;;24.70;66.20;;;;;;5071641;28;20000;-70
2022/05/31 11:01:18;;;;;;;;;;;24.90;66.40;;;;;;5071748;28;20333;-71
2022/05/31 11:03:52;;;;;;;;;;;25.70;65.50;;;;;;5071605;28;19970;-71
2022/05/31 11:06:24;;;;;;;;;;;25.40;65.90;;;;;;5071096;28;19978;-70
2022/05/31 11:11:43;;;;;;;;;;;23.90;70.50;;;;;;5071494;28;19942;-71
2022/05/31 11:14:24;;;;;;;;;;;24.50;71.70;;;;;;5072966;28;20011;-71
2022/05/31 11:16:56;;;;;;;;;;;24.90;71.60;;;;;;5074990;28;20014;-72
2022/05/31 11:19:33;;;;;;;;;;;25.40;69.40;;;;;;5075489;28;19931;-70
2022/05/31 11:22:08;;;;;;;;;;;26.10;66.30;;;;;;5075434;28;19924;-73
2022/05/31 11:24:48;;;;;;;;;;;25.90;67.50;;;;;;5075452;28;19982;-71
2022/05/31 11:27:25;;;;;;;;;;;24.50;70.10;;;;;;5075452;28;20035;-71
2022/05/31 11:30:01;;;;;;;;;;;25.40;67.20;;;;;;5075390;28;19924;-71
2022/05/31 11:32:32;;;;;;;;;;;26.60;67.20;;;;;;5075046;28;20031;-70
2022/05/31 11:35:10;;;;;;;;;;;26.60;64.30;;;;;;5074819;28;20020;-71
2022/05/31 11:37:44;;;;;;;;;;;26.50;64.90;;;;;;5075255;28;20347;-70
2022/05/31 11:40:21;;;;;;;;;;;26.70;64.50;;;;;;5075147;28;20035;-73
2022/05/31 11:43:05;;;;;;;;;;;28.00;63.20;;;;;;5075220;28;19951;-70
2022/05/31 11:45:35;;;;;;;;;;;26.70;65.10;;;;;;5074557;28;20026;-72
2022/05/31 11:48:16;;;;;;;;;;;25.90;66.00;;;;;;5074986;28;19924;-73
2022/05/31 11:50:49;;;;;;;;;;;25.40;67.80;;;;;;5074699;28;20460;-71
2022/05/31 11:53:25;;;;;;;;;;;26.10;64.80;;;;;;5075167;28;20028;-72
2022/05/31 11:55:54;;;;;;;;;;;24.90;66.00;;;;;;5074458;28;19955;-71
2022/05/31 11:58:24;;;;;;;;;;;24.20;67.60;;;;;;5075081;28;19932;-70
2022/05/31 12:00:59;;;;;;;;;;;24.00;67.80;;;;;;5074769;28;19978;-71
2022/05/31 12:03:29;;;;;;;;;;;24.00;69.00;;;;;;5074850;28;19928;-71
2022/05/31 12:06:03;;;;;;;;;;;24.20;68.10;;;;;;5073971;28;19931;-71
2022/05/31 12:08:34;;;;;;;;;;;24.00;69.90;;;;;;5074482;28;20008;-70
2022/05/31 12:11:03;;;;;;;;;;;23.80;68.70;;;;;;5074704;28;19925;-70
2022/05/31 12:13:30;;;;;;;;;;;26.00;66.90;;;;;;5074434;28;20007;-71
2022/05/31 12:15:57;;;;;;;;;;;25.20;66.30;;;;;;5074040;28;19931;-71
2022/05/31 12:18:27;;;;;;;;;;;24.10;68.20;;;;;;5074102;28;20070;-72
2022/05/31 12:20:58;;;;;;;;;;;23.90;70.20;;;;;;5074191;28;20011;-72
2022/05/31 12:23:32;;;;;;;;;;;23.70;69.40;;;;;;5074301;28;20383;-70
2022/05/31 12:26:00;;;;;;;;;;;24.10;68.90;;;;;;5073186;28;19925;-71
2022/05/31 12:28:30;;;;;;;;;;;23.50;68.80;;;;;;5074063;28;19991;-71
2022/05/31 12:31:00;;;;;;;;;;;23.50;69.10;;;;;;5073947;28;20016;-71
2022/05/31 12:33:42;;;;;;;;;;;24.40;69.20;;;;;;5074045;28;20003;-71
2022/05/31 12:36:10;;;;;;;;;;;24.10;68.20;;;;;;5073537;28;20389;-71
2022/05/31 12:38:58;;;;;;;;;;;24.30;68.80;;;;;;5073840;28;20015;-70
2022/05/31 12:41:40;;;;;;;;;;;24.20;69.10;;;;;;5068490;28;19931;-71
2022/05/31 12:44:11;;;;;;;;;;;23.90;68.90;;;;;;5073738;28;20388;-70
2022/05/31 12:46:40;;;;;;;;;;;24.40;69.70;;;;;;5073362;28;19928;-68
2022/05/31 12:49:09;;;;;;;;;;;24.50;68.80;;;;;;5073419;28;19924;-69
2022/05/31 12:51:36;;;;;;;;;;;24.60;69.70;;;;;;5073247;28;19926;-69
2022/05/31 12:54:11;;;;;;;;;;;25.30;67.50;;;;;;5073475;28;20291;-69
2022/05/31 12:56:41;;;;;;;;;;;25.40;68.20;;;;;;5073220;28;19932;-69
2022/05/31 12:59:08;;;;;;;;;;;25.30;68.80;;;;;;5073653;28;20019;-69
2022/05/31 13:01:37;;;;;;;;;;;25.60;67.40;;;;;;5073350;28;20090;-69
2022/05/31 13:04:08;;;;;;;;;;;25.70;67.10;;;;;;5073214;28;20015;-69
2022/05/31 13:06:36;;;;;;;;;;;24.60;69.10;;;;;;5072944;28;20023;-69
2022/05/31 13:09:05;;;;;;;;;;;24.10;69.00;;;;;;5073094;28;20012;-69
2022/05/31 13:20:05;;;;;;;;;;;23.50;68.40;;;;;;5073048;28;19927;-68
2022/05/31 13:22:37;;;;;;;;;;;23.20;69.30;;;;;;5072904;28;20019;-69
2022/05/31 13:25:06;;;;;;;;;;;23.10;69.60;;;;;;5072638;28;19963;-69
2022/05/31 13:27:38;;;;;;;;;;;23.30;71.00;;;;;;5072656;28;20020;-68
2022/05/31 13:30:09;;;;;;;;;;;23.00;70.90;;;;;;5072918;28;20008;-69
2022/05/31 13:32:36;;;;;;;;;;;22.80;71.20;;;;;;5072464;28;20465;-68
2022/05/31 13:35:08;;;;;;;;;;;22.80;71.80;;;;;;5072104;28;19924;-68
2022/05/31 13:37:47;;;;;;;;;;;22.70;70.60;;;;;;5071503;28;20015;-69
2022/05/31 13:40:16;;;;;;;;;;;23.20;69.80;;;;;;5072429;28;19963;-69
2022/05/31 13:42:45;;;;;;;;;;;23.80;70.50;;;;;;5072682;28;19924;-69
2022/05/31 13:45:14;;;;;;;;;;;24.00;69.70;;;;;;5072129;28;19928;-69
2022/05/31 13:47:47;;;;;;;;;;;24.10;69.70;;;;;;5072533;28;19924;-69
2022/05/31 13:50:17;;;;;;;;;;;24.70;68.30;;;;;;5072377;28;20031;-69
2022/05/31 13:52:48;;;;;;;;;;;24.30;68.60;;;;;;5072438;28;20019;-69
2022/05/31 13:55:19;;;;;;;;;;;24.60;69.00;;;;;;5071926;28;20011;-69
2022/05/31 13:57:54;;;;;;;;;;;24.10;69.50;;;;;;5072422;28;20088;-70
2022/05/31 14:00:34;;;;;;;;;;;24.00;69.70;;;;;;5071961;28;19979;-69
2022/05/31 14:03:06;;;;;;;;;;;23.30;71.40;;;;;;5072567;28;19970;-69
2022/05/31 14:05:34;;;;;;;;;;;22.90;71.70;;;;;;5071916;28;19947;-69
2022/05/31 14:08:01;;;;;;;;;;;22.80;73.10;;;;;;5072225;28;20357;-69
2022/05/31 14:10:30;;;;;;;;;;;22.30;74.20;;;;;;5072501;28;19992;-69
2022/05/31 14:13:00;;;;;;;;;;;21.60;77.10;;;;;;5071859;28;19924;-69
2022/05/31 14:15:29;;;;;;;;;;;21.20;79.80;;;;;;5071840;28;19931;-69
2022/05/31 14:18:04;;;;;;;;;;;20.70;83.50;;;;;;5071844;28;20015;-69
2022/05/31 14:20:33;;;;;;;;;;;20.10;90.90;;;;;;5072028;28;20019;-68
2022/05/31 14:23:02;;;;;;;;;;;20.00;94.40;;;;;;5072046;28;20452;-67
2022/05/31 14:25:31;;;;;;;;;;;19.20;99.90;;;;;;5071669;28;20083;-67
2022/05/31 14:27:59;;;;;;;;;;;18.20;99.90;;;;;;5072321;28;19924;-67
2022/05/31 14:30:30;;;;;;;;;;;17.60;99.90;;;;;;5072122;28;20011;-67
2022/05/31 14:33:00;;;;;;;;;;;17.10;99.90;;;;;;5072295;28;19924;-67
2022/05/31 14:35:30;;;;;;;;;;;17.90;99.90;;;;;;5072210;28;19931;-68
2022/05/31 14:37:57;;;;;;;;;;;18.50;99.90;;;;;;5072912;28;19933;-68
2022/05/31 14:40:26;;;;;;;;;;;18.40;99.90;;;;;;5072181;28;20011;-68
2022/05/31 14:42:57;;;;;;;;;;;19.00;99.90;;;;;;5072464;28;19924;-68
2022/05/31 14:45:31;;;;;;;;;;;18.80;99.90;;;;;;5071993;28;20469;-68
2022/05/31 14:47:57;;;;;;;;;;;19.10;99.90;;;;;;5072362;28;20011;-68
2022/05/31 14:50:26;;;;;;;;;;;19.00;99.90;;;;;;5071825;28;20353;-68
2022/05/31 14:52:54;;;;;;;;;;;19.00;99.90;;;;;;5072068;28;19951;-68
2022/05/31 14:55:31;;;;;;;;;;;19.10;99.90;;;;;;5071732;28;20339;-68
2022/05/31 15:00:46;;;;;;;;;;;19.50;99.90;;;;;;5071617;28;19927;-67
2022/05/31 15:03:23;;;;;;;;;;;19.50;99.90;;;;;;5071700;28;19931;-67
2022/05/31 15:05:55;;;;;;;;;;;19.40;97.00;;;;;;5071118;28;19928;-68
2022/05/31 15:08:29;;;;;;;;;;;19.50;96.20;;;;;;5072038;28;20019;-68